sensor_id;sensor_type;location;lat;lon;timestamp;P1;durP1;ratioP1;P2;durP2;ratioP2
19262;SDS011;9765;52.354;20.884;2022-10-16T06:08:00;24.40;;;12.83;;
19262;SDS011;9765;52.354;20.884;2022-10-16T06:10:29;26.13;;;12.77;;
19262;SDS011;9765;52.354;20.884;2022-10-16T06:12:55;22.10;;;12.27;;
19262;SDS011;9765;52.354;20.884;2022-10-16T06:15:22;23.73;;;12.53;;
19262;SDS011;9765;52.354;20.884;2022-10-16T06:17:49;24.30;;;13.47;;
19262;SDS011;9765;52.354;20.884;2022-10-16T06:20:15;22.80;;;13.07;;
19262;SDS011;9765;52.354;20.884;2022-10-16T06:22:42;23.47;;;14.30;;
19262;SDS011;9765;52.354;20.884;2022-10-16T06:25:10;25.53;;;14.50;;
19262;SDS011;9765;52.354;20.884;2022-10-16T06:27:38;21.40;;;12.50;;
19262;SDS011;9765;52.354;20.884;2022-10-16T06:30:09;23.83;;;13.13;;
19262;SDS011;9765;52.354;20.884;2022-10-16T06:32:36;23.07;;;12.67;;
19262;SDS011;9765;52.354;20.884;2022-10-16T06:35:02;22.17;;;12.63;;
19262;SDS011;9765;52.354;20.884;2022-10-16T06:37:29;26.77;;;13.63;;
19262;SDS011;9765;52.354;20.884;2022-10-16T06:39:56;23.13;;;12.23;;
19262;SDS011;9765;52.354;20.884;2022-10-16T06:42:26;22.93;;;11.90;;
19262;SDS011;9765;52.354;20.884;2022-10-16T06:44:53;18.93;;;11.10;;
19262;SDS011;9765;52.354;20.884;2022-10-16T06:47:19;25.47;;;12.70;;
19262;SDS011;9765;52.354;20.884;2022-10-16T06:49:46;20.97;;;11.87;;
19262;SDS011;9765;52.354;20.884;2022-10-16T06:52:13;24.00;;;12.43;;
19262;SDS011;9765;52.354;20.884;2022-10-16T06:54:39;24.53;;;12.60;;
19262;SDS011;9765;52.354;20.884;2022-10-16T06:57:06;21.00;;;12.37;;
19262;SDS011;9765;52.354;20.884;2022-10-16T06:59:37;21.43;;;11.37;;
19262;SDS011;9765;52.354;20.884;2022-10-16T07:02:04;22.63;;;11.90;;
19262;SDS011;9765;52.354;20.884;2022-10-16T07:04:31;22.03;;;11.03;;
19262;SDS011;9765;52.354;20.884;2022-10-16T07:06:59;20.30;;;11.53;;
19262;SDS011;9765;52.354;20.884;2022-10-16T07:09:26;21.20;;;11.80;;
19262;SDS011;9765;52.354;20.884;2022-10-16T07:11:53;21.57;;;12.10;;
19262;SDS011;9765;52.354;20.884;2022-10-16T07:14:20;21.20;;;11.00;;
19262;SDS011;9765;52.354;20.884;2022-10-16T07:16:49;21.83;;;11.30;;
19262;SDS011;9765;52.354;20.884;2022-10-16T07:19:16;26.10;;;13.60;;
19262;SDS011;9765;52.354;20.884;2022-10-16T07:21:43;24.20;;;12.57;;
19262;SDS011;9765;52.354;20.884;2022-10-16T07:24:11;23.70;;;12.07;;
19262;SDS011;9765;52.354;20.884;2022-10-16T07:26:39;20.17;;;11.40;;
19262;SDS011;9765;52.354;20.884;2022-10-16T07:29:06;24.27;;;10.53;;
19262;SDS011;9765;52.354;20.884;2022-10-16T07:31:37;23.17;;;11.57;;
19262;SDS011;9765;52.354;20.884;2022-10-16T07:34:06;29.13;;;11.67;;
19262;SDS011;9765;52.354;20.884;2022-10-16T07:36:32;20.53;;;11.13;;
19262;SDS011;9765;52.354;20.884;2022-10-16T07:38:59;25.23;;;12.23;;
19262;SDS011;9765;52.354;20.884;2022-10-16T07:41:26;20.83;;;11.23;;
19262;SDS011;9765;52.354;20.884;2022-10-16T07:43:54;26.33;;;12.13;;
19262;SDS011;9765;52.354;20.884;2022-10-16T07:46:24;41.37;;;12.63;;
19262;SDS011;9765;52.354;20.884;2022-10-16T07:48:52;24.27;;;11.40;;
19262;SDS011;9765;52.354;20.884;2022-10-16T07:51:20;20.83;;;10.83;;
19262;SDS011;9765;52.354;20.884;2022-10-16T07:53:48;22.47;;;11.57;;
19262;SDS011;9765;52.354;20.884;2022-10-16T07:56:16;24.17;;;11.60;;
19262;SDS011;9765;52.354;20.884;2022-10-16T07:58:44;22.20;;;11.23;;
19262;SDS011;9765;52.354;20.884;2022-10-16T08:01:11;19.73;;;11.23;;
19262;SDS011;9765;52.354;20.884;2022-10-16T08:03:41;18.83;;;10.80;;
19262;SDS011;9765;52.354;20.884;2022-10-16T08:06:08;21.70;;;11.03;;
19262;SDS011;9765;52.354;20.884;2022-10-16T08:08:36;25.53;;;11.43;;
19262;SDS011;9765;52.354;20.884;2022-10-16T08:11:03;18.77;;;11.00;;
19262;SDS011;9765;52.354;20.884;2022-10-16T08:13:29;21.30;;;11.03;;
19262;SDS011;9765;52.354;20.884;2022-10-16T08:15:56;21.43;;;10.67;;
19262;SDS011;9765;52.354;20.884;2022-10-16T08:18:23;22.10;;;10.53;;
19262;SDS011;9765;52.354;20.884;2022-10-16T08:20:56;18.97;;;10.70;;
19262;SDS011;9765;52.354;20.884;2022-10-16T08:23:25;20.30;;;10.90;;
19262;SDS011;9765;52.354;20.884;2022-10-16T08:25:56;18.53;;;11.40;;
19262;SDS011;9765;52.354;20.884;2022-10-16T08:28:28;16.93;;;10.90;;
19262;SDS011;9765;52.354;20.884;2022-10-16T08:30:54;21.93;;;11.27;;
19262;SDS011;9765;52.354;20.884;2022-10-16T08:33:21;19.97;;;10.90;;
19262;SDS011;9765;52.354;20.884;2022-10-16T08:35:51;18.40;;;11.10;;
19262;SDS011;9765;52.354;20.884;2022-10-16T08:38:19;20.47;;;11.47;;
19262;SDS011;9765;52.354;20.884;2022-10-16T08:40:46;17.97;;;10.07;;
19262;SDS011;9765;52.354;20.884;2022-10-16T08:43:30;20.20;;;11.63;;
19262;SDS011;9765;52.354;20.884;2022-10-16T08:46:18;22.83;;;11.10;;
19262;SDS011;9765;52.354;20.884;2022-10-16T08:48:53;21.03;;;10.30;;
19262;SDS011;9765;52.354;20.884;2022-10-16T08:51:23;19.27;;;11.00;;
19262;SDS011;9765;52.354;20.884;2022-10-16T08:53:53;20.07;;;10.33;;
19262;SDS011;9765;52.354;20.884;2022-10-16T08:56:22;18.53;;;10.27;;
19262;SDS011;9765;52.354;20.884;2022-10-16T08:58:51;24.07;;;10.50;;
19262;SDS011;9765;52.354;20.884;2022-10-16T09:01:20;16.83;;;10.40;;
19262;SDS011;9765;52.354;20.884;2022-10-16T09:03:52;19.57;;;10.27;;
19262;SDS011;9765;52.354;20.884;2022-10-16T09:06:40;17.03;;;9.93;;
19262;SDS011;9765;52.354;20.884;2022-10-16T09:09:21;19.50;;;9.80;;
19262;SDS011;9765;52.354;20.884;2022-10-16T09:12:03;17.13;;;9.70;;
19262;SDS011;9765;52.354;20.884;2022-10-16T09:17:37;18.10;;;9.10;;
19262;SDS011;9765;52.354;20.884;2022-10-16T09:20:20;16.37;;;9.63;;
19262;SDS011;9765;52.354;20.884;2022-10-16T09:23:00;22.00;;;8.90;;
19262;SDS011;9765;52.354;20.884;2022-10-16T09:25:38;17.50;;;9.47;;
19262;SDS011;9765;52.354;20.884;2022-10-16T09:28:07;19.60;;;8.60;;
19262;SDS011;9765;52.354;20.884;2022-10-16T09:30:35;17.77;;;8.70;;
19262;SDS011;9765;52.354;20.884;2022-10-16T09:33:04;15.73;;;8.63;;
19262;SDS011;9765;52.354;20.884;2022-10-16T09:35:33;14.03;;;8.93;;
19262;SDS011;9765;52.354;20.884;2022-10-16T09:38:03;17.10;;;9.27;;
19262;SDS011;9765;52.354;20.884;2022-10-16T09:40:31;16.93;;;9.30;;
19262;SDS011;9765;52.354;20.884;2022-10-16T09:43:01;21.87;;;12.00;;
19262;SDS011;9765;52.354;20.884;2022-10-16T09:45:32;14.67;;;9.03;;
19262;SDS011;9765;52.354;20.884;2022-10-16T09:48:00;14.63;;;9.27;;
19262;SDS011;9765;52.354;20.884;2022-10-16T09:50:36;18.43;;;9.10;;
19262;SDS011;9765;52.354;20.884;2022-10-16T09:53:04;19.27;;;9.00;;
19262;SDS011;9765;52.354;20.884;2022-10-16T09:55:32;14.63;;;8.90;;
19262;SDS011;9765;52.354;20.884;2022-10-16T09:57:58;21.67;;;9.30;;
19262;SDS011;9765;52.354;20.884;2022-10-16T10:00:25;16.43;;;8.70;;
19262;SDS011;9765;52.354;20.884;2022-10-16T10:02:52;18.07;;;8.73;;
19262;SDS011;9765;52.354;20.884;2022-10-16T10:05:21;18.77;;;9.70;;
19262;SDS011;9765;52.354;20.884;2022-10-16T10:07:53;14.40;;;8.40;;
19262;SDS011;9765;52.354;20.884;2022-10-16T10:10:22;15.93;;;8.77;;
19262;SDS011;9765;52.354;20.884;2022-10-16T10:12:50;15.83;;;9.13;;
19262;SDS011;9765;52.354;20.884;2022-10-16T10:15:17;16.13;;;8.60;;
19262;SDS011;9765;52.354;20.884;2022-10-16T10:17:47;39.50;;;9.17;;
19262;SDS011;9765;52.354;20.884;2022-10-16T10:20:27;12.07;;;7.93;;
19262;SDS011;9765;52.354;20.884;2022-10-16T10:22:55;16.27;;;8.73;;
19262;SDS011;9765;52.354;20.884;2022-10-16T10:25:27;16.90;;;8.77;;
19262;SDS011;9765;52.354;20.884;2022-10-16T10:28:06;16.17;;;8.50;;
19262;SDS011;9765;52.354;20.884;2022-10-16T10:30:50;15.40;;;8.23;;
19262;SDS011;9765;52.354;20.884;2022-10-16T10:33:24;16.40;;;8.83;;
19262;SDS011;9765;52.354;20.884;2022-10-16T10:36:00;55.57;;;10.23;;
19262;SDS011;9765;52.354;20.884;2022-10-16T10:38:39;20.87;;;9.43;;
19262;SDS011;9765;52.354;20.884;2022-10-16T10:41:19;23.23;;;10.00;;
19262;SDS011;9765;52.354;20.884;2022-10-16T10:43:57;16.27;;;9.07;;
19262;SDS011;9765;52.354;20.884;2022-10-16T10:46:31;17.07;;;9.30;;
19262;SDS011;9765;52.354;20.884;2022-10-16T10:49:13;14.20;;;8.73;;
19262;SDS011;9765;52.354;20.884;2022-10-16T10:51:51;17.80;;;9.27;;
19262;SDS011;9765;52.354;20.884;2022-10-16T10:54:28;16.27;;;9.33;;
19262;SDS011;9765;52.354;20.884;2022-10-16T10:57:02;15.57;;;9.83;;
19262;SDS011;9765;52.354;20.884;2022-10-16T10:59:45;17.27;;;9.93;;
19262;SDS011;9765;52.354;20.884;2022-10-16T11:02:22;16.97;;;9.73;;
19262;SDS011;9765;52.354;20.884;2022-10-16T11:07:52;18.63;;;9.17;;
19262;SDS011;9765;52.354;20.884;2022-10-16T11:10:25;15.57;;;9.27;;
19262;SDS011;9765;52.354;20.884;2022-10-16T11:12:55;22.30;;;9.77;;
19262;SDS011;9765;52.354;20.884;2022-10-16T11:15:27;13.00;;;8.57;;
19262;SDS011;9765;52.354;20.884;2022-10-16T11:17:59;15.40;;;9.80;;
19262;SDS011;9765;52.354;20.884;2022-10-16T11:20:32;18.30;;;8.40;;
19262;SDS011;9765;52.354;20.884;2022-10-16T11:23:02;18.67;;;8.57;;
19262;SDS011;9765;52.354;20.884;2022-10-16T11:25:37;22.73;;;9.00;;
19262;SDS011;9765;52.354;20.884;2022-10-16T11:28:07;17.70;;;8.57;;
19262;SDS011;9765;52.354;20.884;2022-10-16T11:30:39;15.50;;;8.00;;
19262;SDS011;9765;52.354;20.884;2022-10-16T11:33:18;14.77;;;9.13;;
19262;SDS011;9765;52.354;20.884;2022-10-16T11:35:52;13.43;;;8.50;;
19262;SDS011;9765;52.354;20.884;2022-10-16T11:38:26;12.37;;;8.23;;
19262;SDS011;9765;52.354;20.884;2022-10-16T11:40:58;16.40;;;8.83;;
19262;SDS011;9765;52.354;20.884;2022-10-16T11:43:29;14.27;;;8.80;;
19262;SDS011;9765;52.354;20.884;2022-10-16T11:46:02;16.27;;;8.80;;
19262;SDS011;9765;52.354;20.884;2022-10-16T11:48:39;15.87;;;9.30;;
19262;SDS011;9765;52.354;20.884;2022-10-16T11:51:11;18.23;;;8.83;;
19262;SDS011;9765;52.354;20.884;2022-10-16T11:53:48;16.67;;;9.57;;
19262;SDS011;9765;52.354;20.884;2022-10-16T11:56:21;13.87;;;8.50;;
19262;SDS011;9765;52.354;20.884;2022-10-16T11:58:51;15.40;;;8.90;;
19262;SDS011;9765;52.354;20.884;2022-10-16T12:01:24;15.87;;;8.90;;
19262;SDS011;9765;52.354;20.884;2022-10-16T12:03:59;20.00;;;8.37;;
19262;SDS011;9765;52.354;20.884;2022-10-16T12:06:34;20.57;;;9.20;;
19262;SDS011;9765;52.354;20.884;2022-10-16T12:09:10;14.20;;;9.10;;
19262;SDS011;9765;52.354;20.884;2022-10-16T12:11:41;16.30;;;9.03;;
19262;SDS011;9765;52.354;20.884;2022-10-16T12:14:19;16.40;;;8.77;;
19262;SDS011;9765;52.354;20.884;2022-10-16T12:16:52;20.37;;;8.90;;
19262;SDS011;9765;52.354;20.884;2022-10-16T12:19:21;21.80;;;9.47;;
19262;SDS011;9765;52.354;20.884;2022-10-16T12:21:49;18.77;;;9.03;;
19262;SDS011;9765;52.354;20.884;2022-10-16T12:24:27;14.20;;;8.50;;
19262;SDS011;9765;52.354;20.884;2022-10-16T12:26:58;16.43;;;8.57;;
19262;SDS011;9765;52.354;20.884;2022-10-16T12:29:29;15.47;;;8.40;;
19262;SDS011;9765;52.354;20.884;2022-10-16T12:32:05;18.37;;;8.40;;
19262;SDS011;9765;52.354;20.884;2022-10-16T12:34:50;13.93;;;8.57;;
19262;SDS011;9765;52.354;20.884;2022-10-16T12:37:19;13.03;;;8.37;;
19262;SDS011;9765;52.354;20.884;2022-10-16T12:39:50;17.73;;;8.80;;
19262;SDS011;9765;52.354;20.884;2022-10-16T12:42:21;15.37;;;8.00;;
19262;SDS011;9765;52.354;20.884;2022-10-16T12:44:50;16.37;;;8.50;;
19262;SDS011;9765;52.354;20.884;2022-10-16T12:47:20;17.10;;;7.73;;
19262;SDS011;9765;52.354;20.884;2022-10-16T12:49:49;20.93;;;8.77;;
19262;SDS011;9765;52.354;20.884;2022-10-16T12:52:23;15.67;;;8.20;;
19262;SDS011;9765;52.354;20.884;2022-10-16T12:54:59;16.43;;;8.53;;
19262;SDS011;9765;52.354;20.884;2022-10-16T12:57:30;13.03;;;8.20;;
19262;SDS011;9765;52.354;20.884;2022-10-16T13:00:09;16.20;;;7.90;;
19262;SDS011;9765;52.354;20.884;2022-10-16T13:02:48;15.27;;;7.80;;
19262;SDS011;9765;52.354;20.884;2022-10-16T13:05:26;10.80;;;7.13;;
19262;SDS011;9765;52.354;20.884;2022-10-16T13:08:05;14.17;;;7.63;;
19262;SDS011;9765;52.354;20.884;2022-10-16T13:10:51;12.30;;;7.60;;
19262;SDS011;9765;52.354;20.884;2022-10-16T13:13:38;20.57;;;7.93;;
19262;SDS011;9765;52.354;20.884;2022-10-16T13:16:17;14.90;;;7.73;;
19262;SDS011;9765;52.354;20.884;2022-10-16T13:18:56;20.27;;;8.33;;
19262;SDS011;9765;52.354;20.884;2022-10-16T13:21:34;19.77;;;8.27;;
19262;SDS011;9765;52.354;20.884;2022-10-16T13:24:11;14.70;;;8.33;;
19262;SDS011;9765;52.354;20.884;2022-10-16T13:26:49;18.20;;;8.17;;
19262;SDS011;9765;52.354;20.884;2022-10-16T13:29:20;13.47;;;8.63;;
19262;SDS011;9765;52.354;20.884;2022-10-16T13:31:47;27.90;;;15.30;;
19262;SDS011;9765;52.354;20.884;2022-10-16T13:34:20;20.07;;;12.07;;
19262;SDS011;9765;52.354;20.884;2022-10-16T13:36:49;15.97;;;9.53;;
19262;SDS011;9765;52.354;20.884;2022-10-16T13:39:21;16.40;;;10.37;;
19262;SDS011;9765;52.354;20.884;2022-10-16T13:42:03;15.90;;;8.60;;
19262;SDS011;9765;52.354;20.884;2022-10-16T13:44:34;26.57;;;9.53;;
19262;SDS011;9765;52.354;20.884;2022-10-16T13:47:10;20.83;;;10.37;;
19262;SDS011;9765;52.354;20.884;2022-10-16T13:49:42;36.97;;;10.97;;
19262;SDS011;9765;52.354;20.884;2022-10-16T13:52:15;17.80;;;9.03;;
19262;SDS011;9765;52.354;20.884;2022-10-16T13:54:44;18.30;;;9.90;;
19262;SDS011;9765;52.354;20.884;2022-10-16T13:57:13;21.03;;;8.87;;
19262;SDS011;9765;52.354;20.884;2022-10-16T13:59:40;26.27;;;9.77;;
19262;SDS011;9765;52.354;20.884;2022-10-16T14:02:10;16.93;;;9.23;;
19262;SDS011;9765;52.354;20.884;2022-10-16T14:04:46;58.30;;;13.40;;
19262;SDS011;9765;52.354;20.884;2022-10-16T14:07:13;20.17;;;10.70;;
19262;SDS011;9765;52.354;20.884;2022-10-16T14:09:47;34.33;;;10.73;;
19262;SDS011;9765;52.354;20.884;2022-10-16T14:12:16;19.33;;;10.60;;
19262;SDS011;9765;52.354;20.884;2022-10-16T14:14:44;20.20;;;9.47;;
19262;SDS011;9765;52.354;20.884;2022-10-16T14:17:15;17.67;;;9.77;;
19262;SDS011;9765;52.354;20.884;2022-10-16T14:19:45;20.83;;;10.60;;
19262;SDS011;9765;52.354;20.884;2022-10-16T14:22:22;19.47;;;9.83;;
19262;SDS011;9765;52.354;20.884;2022-10-16T14:24:54;17.53;;;10.33;;
19262;SDS011;9765;52.354;20.884;2022-10-16T14:27:25;18.63;;;10.40;;
19262;SDS011;9765;52.354;20.884;2022-10-16T14:30:05;21.10;;;8.97;;
19262;SDS011;9765;52.354;20.884;2022-10-16T14:32:39;16.60;;;9.37;;
19262;SDS011;9765;52.354;20.884;2022-10-16T14:35:11;20.40;;;9.43;;
19262;SDS011;9765;52.354;20.884;2022-10-16T14:37:51;16.43;;;9.73;;
19262;SDS011;9765;52.354;20.884;2022-10-16T14:40:18;17.67;;;9.70;;
19262;SDS011;9765;52.354;20.884;2022-10-16T14:42:47;16.13;;;9.93;;
19262;SDS011;9765;52.354;20.884;2022-10-16T14:45:15;16.60;;;9.57;;
19262;SDS011;9765;52.354;20.884;2022-10-16T14:47:52;21.80;;;8.83;;
19262;SDS011;9765;52.354;20.884;2022-10-16T14:50:21;20.40;;;8.53;;
19262;SDS011;9765;52.354;20.884;2022-10-16T14:52:48;18.30;;;9.13;;
19262;SDS011;9765;52.354;20.884;2022-10-16T14:55:15;16.50;;;9.40;;
19262;SDS011;9765;52.354;20.884;2022-10-16T14:57:42;38.00;;;10.10;;
19262;SDS011;9765;52.354;20.884;2022-10-16T15:00:14;14.77;;;8.37;;
19262;SDS011;9765;52.354;20.884;2022-10-16T15:02:43;16.00;;;8.80;;
19262;SDS011;9765;52.354;20.884;2022-10-16T15:05:12;16.53;;;9.33;;
19262;SDS011;9765;52.354;20.884;2022-10-16T15:07:40;18.70;;;9.30;;
19262;SDS011;9765;52.354;20.884;2022-10-16T15:10:07;20.47;;;8.77;;
19262;SDS011;9765;52.354;20.884;2022-10-16T15:12:34;20.13;;;9.40;;
19262;SDS011;9765;52.354;20.884;2022-10-16T15:15:01;24.20;;;9.27;;
19262;SDS011;9765;52.354;20.884;2022-10-16T15:17:29;23.53;;;9.83;;
19262;SDS011;9765;52.354;20.884;2022-10-16T15:19:56;21.67;;;8.90;;
19262;SDS011;9765;52.354;20.884;2022-10-16T15:22:24;15.63;;;8.73;;
